Time;durP1;ratioP1;P1;durP2;ratioP2;P2;SDS_P1;SDS_P2;PMS_P1;PMS_P2;Temp;Humidity;BMP_temperature;BMP_pressure;BME280_temperature;BME280_humidity;BME280_pressure;Samples;Min_cycle;Max_cycle;Signal;HPM_P1;HPM_P2
2020/12/14 00:01:08;;;;;;;94.50;40.05;;;;;;;0.58;93.26;99074.13;4400521;80;21146;-80
2020/12/14 00:07:10;;;;;;;92.72;40.78;;;;;;;0.64;93.25;99074.27;4402185;80;21142;-81
2020/12/14 00:13:11;;;;;;;92.65;40.52;;;;;;;0.58;93.06;99072.00;4392958;80;21173;-80
2020/12/14 00:19:13;;;;;;;83.65;36.13;;;;;;;0.58;93.06;99072.00;4409136;80;21688;-81
2020/12/14 00:25:14;;;;;;;83.10;38.40;;;;;;;0.47;93.11;99073.36;4394883;80;21595;-80
2020/12/14 00:31:17;;;;;;;80.42;36.05;;;;;;;0.44;93.03;99073.40;4354758;81;21304;-81
2020/12/14 00:37:19;;;;;;;78.87;35.68;;;;;;;0.47;93.45;99082.20;4352092;81;21133;-80
2020/12/14 00:43:21;;;;;;;78.30;36.53;;;;;;;0.46;93.24;99083.32;4336402;80;21972;-81
2020/12/14 00:49:22;;;;;;;77.05;35.63;;;;;;;0.46;93.24;99090.05;4352725;80;21396;-81
2020/12/14 00:55:24;;;;;;;88.10;40.37;;;;;;;0.49;93.35;99099.41;4338198;81;21314;-80
2020/12/14 01:01:25;;;;;;;85.17;39.00;;;;;;;0.47;93.47;99078.74;4342772;80;21181;-81
2020/12/14 01:07:27;;;;;;;91.60;41.40;;;;;;;0.47;93.47;99078.74;4339043;80;21295;-80
2020/12/14 01:13:28;;;;;;;75.78;36.68;;;;;;;0.61;93.21;99100.45;4338206;80;21473;-81
2020/12/14 01:19:29;;;;;;;74.25;33.38;;;;;;;0.65;93.30;99098.75;4332987;81;21133;-81
2020/12/14 01:25:35;;;;;;;71.30;36.40;;;;;;;0.70;93.17;99103.20;4342761;81;21216;-80
2020/12/14 01:31:36;;;;;;;76.47;33.37;;;;;;;0.56;92.71;99110.02;4397611;79;21570;-81
2020/12/14 01:37:38;;;;;;;73.85;34.45;;;;;;;0.50;93.03;99099.67;4395052;80;21141;-81
2020/12/14 01:43:39;;;;;;;72.32;34.92;;;;;;;0.41;93.17;99106.33;4390307;80;21150;-81
2020/12/14 01:49:41;;;;;;;76.95;35.48;;;;;;;0.47;93.44;99093.55;4399518;80;21147;-80
2020/12/14 01:55:42;;;;;;;66.92;29.48;;;;;;;0.47;93.01;99099.72;4390419;79;21179;-80
2020/12/14 02:01:44;;;;;;;65.08;31.97;;;;;;;0.46;93.07;99104.87;4393250;80;21145;-81
2020/12/14 02:07:45;;;;;;;69.25;31.33;;;;;;;0.51;93.21;99103.95;4398256;80;21156;-80
2020/12/14 02:13:48;;;;;;;61.15;28.40;;;;;;;0.45;93.03;99113.26;4384784;79;21210;-81
2020/12/14 02:19:50;;;;;;;69.77;30.70;;;;;;;0.46;93.27;99106.76;4395684;80;21157;-80
2020/12/14 02:25:51;;;;;;;63.25;29.40;;;;;;;0.59;93.47;99111.30;4393763;79;21795;-81
2020/12/14 02:31:53;;;;;;;60.95;27.95;;;;;;;0.69;93.54;99115.09;4384206;80;21207;-80
2020/12/14 02:37:54;;;;;;;64.85;30.57;;;;;;;0.70;93.11;99116.14;4387062;80;21230;-81
2020/12/14 02:43:56;;;;;;;63.08;28.47;;;;;;;0.72;93.01;99116.60;4388525;80;21133;-81
2020/12/14 02:49:57;;;;;;;57.83;27.80;;;;;;;0.72;93.01;99116.60;4380899;80;21172;-81
2020/12/14 02:55:59;;;;;;;65.85;28.70;;;;;;;0.80;93.22;99125.88;4385974;80;21444;-80
2020/12/14 03:02:00;;;;;;;56.42;26.65;;;;;;;0.81;92.87;99131.49;4384959;80;21183;-81
2020/12/14 03:08:01;;;;;;;61.40;28.42;;;;;;;0.79;92.82;99126.95;4378723;80;21175;-81
2020/12/14 03:14:03;;;;;;;57.78;28.25;;;;;;;0.73;92.99;99131.69;4379301;80;21192;-80
2020/12/14 03:20:04;;;;;;;64.05;28.80;;;;;;;0.78;93.07;99131.56;4383503;80;21619;-80
2020/12/14 03:26:06;;;;;;;55.28;25.88;;;;;;;0.83;93.16;99140.08;4388130;79;21177;-81
2020/12/14 03:32:07;;;;;;;53.52;26.40;;;;;;;0.76;92.62;99145.09;4406680;80;21198;-81
2020/12/14 03:38:09;;;;;;;51.48;25.70;;;;;;;0.68;92.81;99145.28;4389399;80;21205;-81
2020/12/14 03:44:10;;;;;;;60.20;28.00;;;;;;;0.68;92.81;99145.28;4399374;80;21173;-81
2020/12/14 03:50:11;;;;;;;59.45;27.17;;;;;;;0.78;92.65;99163.91;4393548;80;21154;-80
2020/12/14 03:56:13;;;;;;;56.08;27.15;;;;;;;0.75;92.83;99156.98;4407081;79;21181;-80
2020/12/14 04:02:14;;;;;;;58.68;26.87;;;;;;;0.74;93.12;99162.10;4395392;80;21187;-81
2020/12/14 04:08:17;;;;;;;52.70;25.60;;;;;;;0.74;93.12;99162.10;4398192;80;21174;-81
2020/12/14 04:14:19;;;;;;;54.20;24.92;;;;;;;0.76;92.62;99168.80;4399401;79;21165;-81
2020/12/14 04:20:20;;;;;;;52.33;23.75;;;;;;;0.75;92.72;99181.23;4403151;79;21197;-81
2020/12/14 04:26:22;;;;;;;58.87;24.20;;;;;;;0.67;92.70;99180.06;4397609;79;21134;-81
2020/12/14 04:32:23;;;;;;;56.85;25.15;;;;;;;0.62;92.78;99169.95;4410518;80;21997;-81
2020/12/14 04:38:25;;;;;;;55.50;26.42;;;;;;;0.47;92.93;99196.67;4409953;80;21145;-81
2020/12/14 04:44:28;;;;;;;53.95;26.25;;;;;;;0.38;93.05;99208.47;4321633;81;21828;-81
2020/12/14 04:50:30;;;;;;;53.17;25.52;;;;;;;0.24;93.25;99192.89;4276908;82;21173;-81
2020/12/14 04:56:42;;;;;;;65.10;30.88;;;;;;;0.34;93.23;99223.11;4325806;81;21183;-81
2020/12/14 05:02:44;;;;;;;65.25;29.82;;;;;;;0.45;93.19;99229.88;4237922;83;21190;-81
2020/12/14 05:08:46;;;;;;;60.48;28.92;;;;;;;0.56;93.41;99239.86;4281422;82;21152;-81
2020/12/14 05:14:48;;;;;;;63.28;29.90;;;;;;;0.64;93.36;99258.81;4321766;81;21121;-81
2020/12/14 05:21:04;;;;;;;58.42;27.30;;;;;;;0.51;93.23;99241.31;4323614;81;21121;-81
2020/12/14 05:27:06;;;;;;;65.87;31.73;;;;;;;0.51;93.23;99241.31;4325609;81;21376;-81
2020/12/14 05:33:10;;;;;;;66.87;32.38;;;;;;;0.61;93.18;99274.78;4394038;80;21157;-81
2020/12/14 05:39:17;;;;;;;62.23;29.80;;;;;;;0.53;93.26;99257.98;4390102;80;21382;-81
2020/12/14 05:45:18;;;;;;;59.25;27.27;;;;;;;0.49;93.40;99261.02;4394619;80;21318;-81
2020/12/14 05:51:24;;;;;;;58.05;27.05;;;;;;;0.39;93.49;99265.29;4401848;80;21304;-82
2020/12/14 05:57:37;;;;;;;60.33;26.45;;;;;;;0.37;93.73;99267.48;4402413;80;21180;-81
2020/12/14 06:03:39;;;;;;;58.78;26.30;;;;;;;0.37;93.75;99266.94;4393776;80;21288;-81
2020/12/14 06:09:43;;;;;;;60.10;24.63;;;;;;;0.28;94.11;99251.80;4387102;80;21171;-81
2020/12/14 06:15:48;;;;;;;65.05;27.07;;;;;;;0.35;93.68;99293.91;4399891;80;21307;-81
2020/12/14 06:22:02;;;;;;;65.08;28.25;;;;;;;0.38;93.88;99306.77;4387760;80;21309;-81
2020/12/14 06:28:31;;;;;;;60.10;28.00;;;;;;;0.43;93.95;99316.09;4403113;80;21625;-80
2020/12/14 06:34:38;;;;;;;58.52;25.75;;;;;;;0.52;93.88;99321.05;4409168;80;21587;-81
2020/12/14 06:40:59;;;;;;;60.38;25.32;;;;;;;0.33;93.20;99290.73;4404566;80;21309;-81
2020/12/14 06:47:18;;;;;;;61.90;25.32;;;;;;;0.63;93.68;99323.20;4396713;80;21603;-81
2020/12/14 06:53:50;;;;;;;66.17;29.00;;;;;;;0.60;93.49;99345.36;4263504;83;21656;-81
2020/12/14 06:59:53;;;;;;;53.60;25.77;;;;;;;0.66;93.95;99340.69;4264128;82;21607;-81
2020/12/14 07:06:00;;;;;;;64.30;29.42;;;;;;;0.66;93.95;99340.69;4312967;81;21655;-81
2020/12/14 07:12:19;;;;;;;62.40;29.25;;;;;;;0.84;94.21;99327.61;4326175;81;21179;-81
2020/12/14 07:18:24;;;;;;;66.07;28.47;;;;;;;0.84;94.21;99327.61;4322599;81;21167;-81
2020/12/14 07:24:34;;;;;;;63.78;29.20;;;;;;;0.94;94.13;99312.58;4318139;81;21291;-81
2020/12/14 07:30:36;;;;;;;77.90;37.75;;;;;;;1.06;93.61;99343.83;4302819;81;21184;-81
2020/12/14 07:36:37;;;;;;;94.32;43.95;;;;;;;1.20;93.88;99343.23;4298136;81;21195;-81
2020/12/14 07:42:44;;;;;;;110.88;60.15;;;;;;;1.09;93.64;99313.56;4305843;81;21312;-81
2020/12/14 07:49:06;;;;;;;90.17;47.08;;;;;;;1.15;93.27;99337.41;4300686;82;21146;-81
2020/12/14 07:55:11;;;;;;;72.75;37.65;;;;;;;1.11;93.53;99334.28;4293945;81;21175;-81
2020/12/14 08:01:16;;;;;;;57.70;29.63;;;;;;;1.07;93.84;99330.05;4296767;81;21624;-81
2020/12/14 08:07:20;;;;;;;51.43;25.50;;;;;;;1.07;93.84;99330.05;4296912;82;21339;-81
2020/12/14 08:13:21;;;;;;;52.43;21.95;;;;;;;1.22;93.64;99352.59;4308263;81;21114;-81
2020/12/14 08:19:23;;;;;;;49.40;23.10;;;;;;;1.27;93.38;99351.14;4305599;81;21629;-81
2020/12/14 08:25:32;;;;;;;48.70;24.18;;;;;;;1.29;93.52;99360.27;4310175;82;21850;-81
2020/12/14 08:31:34;;;;;;;52.95;25.08;;;;;;;1.34;93.26;99364.20;4313920;81;21165;-81
2020/12/14 08:37:36;;;;;;;59.10;27.58;;;;;;;1.40;93.33;99362.44;4317256;81;21126;-81
2020/12/14 08:43:38;;;;;;;59.75;28.10;;;;;;;1.37;93.18;99371.69;4310527;81;21169;-81
2020/12/14 08:49:39;;;;;;;64.05;26.40;;;;;;;1.43;93.51;99368.56;4274525;82;22052;-82
2020/12/14 08:55:41;;;;;;;59.73;26.85;;;;;;;1.47;93.18;99364.14;4248505;83;21630;-82
2020/12/14 09:02:02;;;;;;;63.50;30.90;;;;;;;1.51;93.28;99361.64;4288720;82;21193;-81
2020/12/14 09:08:16;;;;;;;69.50;34.85;;;;;;;1.56;93.30;99354.78;4320603;81;21192;-80
2020/12/14 09:14:25;;;;;;;72.32;34.55;;;;;;;1.61;93.39;99358.70;4280937;82;21614;-79
2020/12/14 09:20:27;;;;;;;60.43;27.25;;;;;;;1.66;93.25;99362.60;4242781;83;21122;-78
2020/12/14 09:26:28;;;;;;;54.95;26.30;;;;;;;1.79;93.38;99350.14;4280892;82;21190;-78
2020/12/14 09:32:30;;;;;;;56.18;26.65;;;;;;;1.80;93.21;99351.75;4258335;82;22081;-78
2020/12/14 09:38:31;;;;;;;52.80;26.52;;;;;;;1.80;92.96;99344.46;4261806;82;21328;-79
2020/12/14 09:44:32;;;;;;;42.45;20.50;;;;;;;1.85;92.82;99352.41;4404913;79;21169;-79
2020/12/14 09:50:34;;;;;;;37.08;18.10;;;;;;;1.84;92.88;99340.02;4409890;79;21644;-80
2020/12/14 09:56:36;;;;;;;41.85;18.67;;;;;;;1.76;92.45;99335.91;4274671;82;21232;-80
2020/12/14 10:02:37;;;;;;;35.88;18.12;;;;;;;1.76;92.60;99333.22;4282329;82;21190;-80
2020/12/14 10:08:40;;;;;;;31.73;15.68;;;;;;;1.76;92.30;99319.72;4278580;82;21198;-80
2020/12/14 10:14:41;;;;;;;35.33;17.90;;;;;;;1.80;92.24;99326.92;4277609;82;21332;-80
2020/12/14 10:20:43;;;;;;;28.17;14.43;;;;;;;1.86;92.41;99333.77;4280135;82;21144;-79
2020/12/14 10:26:49;;;;;;;28.55;13.83;;;;;;;1.99;92.15;99332.87;4262330;82;21157;-81
2020/12/14 10:32:51;;;;;;;31.85;14.40;;;;;;;1.91;91.74;99328.80;4280787;82;21747;-80
2020/12/14 10:38:53;;;;;;;34.05;14.95;;;;;;;2.01;91.98;99322.56;4258135;83;21173;-80
2020/12/14 10:44:54;;;;;;;26.97;13.90;;;;;;;2.05;91.67;99329.49;4239997;83;21628;-81
2020/12/14 10:50:56;;;;;;;22.67;11.73;;;;;;;2.06;91.33;99326.48;4265692;83;21205;-81
2020/12/14 10:56:57;;;;;;;19.52;11.25;;;;;;;2.11;91.73;99322.84;4270249;82;21186;-81
2020/12/14 11:02:59;;;;;;;24.72;12.60;;;;;;;2.13;91.72;99331.44;4248189;83;21129;-81
2020/12/14 11:09:01;;;;;;;23.85;13.50;;;;;;;2.16;91.59;99332.17;4252848;83;21638;-81
2020/12/14 11:15:07;;;;;;;26.05;12.68;;;;;;;2.22;91.42;99337.13;4286808;83;21169;-81
2020/12/14 11:21:07;;;;;;;30.10;14.35;;;;;;;2.19;91.47;99323.44;4243059;83;21610;-81
2020/12/14 11:27:09;;;;;;;30.17;13.18;;;;;;;2.22;91.26;99316.06;4252651;83;21210;-81
2020/12/14 11:33:11;;;;;;;28.00;14.05;;;;;;;2.11;90.65;99316.09;4248132;83;21175;-81
2020/12/14 11:39:12;;;;;;;31.60;14.40;;;;;;;2.21;91.11;99302.33;4265853;83;21165;-81
2020/12/14 11:45:29;;;;;;;35.03;15.00;;;;;;;2.20;89.74;99303.41;4283940;83;21751;-80
2020/12/14 11:51:30;;;;;;;;;;;;;;;2.17;89.93;99299.98;4280656;83;21143;-81
2020/12/14 11:57:31;;;;;;;31.73;15.95;;;;;;;2.14;90.05;99313.58;4265043;83;20217;-81
2020/12/14 12:03:33;;;;;;;29.18;15.85;;;;;;;2.17;90.19;99318.89;4253526;83;21166;-81
2020/12/14 12:09:38;;;;;;;34.53;16.32;;;;;;;2.27;89.42;99310.52;4267299;82;21749;-81
2020/12/14 12:15:39;;;;;;;34.23;17.00;;;;;;;2.14;88.98;99296.56;4284436;82;21185;-81
2020/12/14 12:21:41;;;;;;;30.10;16.02;;;;;;;2.20;89.89;99300.17;4250109;83;21164;-81
2020/12/14 12:27:42;;;;;;;40.43;21.23;;;;;;;2.18;89.27;99312.38;4286783;83;21205;-80
2020/12/14 12:33:43;;;;;;;27.37;13.85;;;;;;;2.17;89.63;99317.00;4263630;82;21200;-80
2020/12/14 12:39:45;;;;;;;30.72;15.53;;;;;;;2.13;89.36;99305.20;4240158;84;21147;-82
2020/12/14 12:45:46;;;;;;;34.60;16.97;;;;;;;2.06;89.33;99303.53;4251811;82;21246;-82
2020/12/14 12:51:50;;;;;;;34.05;17.73;;;;;;;2.07;88.55;99305.69;4251789;82;21335;-83
2020/12/14 12:57:52;;;;;;;43.90;20.48;;;;;;;2.02;89.06;99310.64;4277107;82;21162;-83
2020/12/14 13:03:53;;;;;;;38.53;20.25;;;;;;;1.95;88.92;99321.11;4255341;82;21189;-81
2020/12/14 13:09:54;;;;;;;37.55;22.15;;;;;;;1.96;89.25;99326.73;4245717;82;21353;-81
2020/12/14 13:15:56;;;;;;;38.67;19.95;;;;;;;2.04;89.52;99331.39;4265131;82;21205;-82
2020/12/14 13:21:57;;;;;;;35.92;17.30;;;;;;;2.09;89.43;99337.20;4306902;82;21145;-84
2020/12/14 13:27:59;;;;;;;33.92;16.75;;;;;;;2.08;89.13;99336.97;4282283;83;21177;-87
2020/12/14 13:34:01;;;;;;;31.82;16.85;;;;;;;2.03;89.16;99334.40;4290657;82;21192;-85
2020/12/14 13:40:04;;;;;;;33.70;18.35;;;;;;;2.04;89.27;99334.63;4275636;82;21641;-85
2020/12/14 13:46:07;;;;;;;35.08;18.82;;;;;;;2.01;88.68;99337.95;4314416;81;21288;-85
2020/12/14 13:52:08;;;;;;;43.25;20.85;;;;;;;1.92;88.88;99335.23;4258706;82;21158;-84
2020/12/14 13:58:10;;;;;;;42.45;20.30;;;;;;;1.83;88.55;99334.39;4316728;81;21592;-85
2020/12/14 14:04:11;;;;;;;50.17;24.55;;;;;;;1.76;88.72;99339.42;4316363;81;21180;-84
2020/12/14 14:10:12;;;;;;;50.52;22.48;;;;;;;1.75;89.07;99328.39;4327869;81;21336;-87
2020/12/14 14:16:14;;;;;;;45.90;23.10;;;;;;;1.76;89.10;99337.27;4315565;81;21235;-87
2020/12/14 14:22:15;;;;;;;53.60;27.93;;;;;;;1.77;89.01;99345.63;4312530;81;21285;-86
2020/12/14 14:28:18;;;;;;;43.45;22.10;;;;;;;1.75;88.94;99351.88;4287508;81;21642;-87
2020/12/14 14:34:20;;;;;;;50.90;25.82;;;;;;;1.73;88.98;99352.19;4257671;82;21192;-88
2020/12/14 14:40:21;;;;;;;94.42;47.45;;;;;;;1.68;88.72;99348.83;4245359;82;21161;-87
2020/12/14 14:46:23;;;;;;;59.85;32.38;;;;;;;1.64;88.87;99359.44;4267371;83;21185;-89
2020/12/14 14:52:25;;;;;;;89.30;48.78;;;;;;;1.58;89.01;99354.70;4253136;83;21200;-88
2020/12/14 14:58:28;;;;;;;88.82;48.80;;;;;;;1.59;88.79;99357.66;4261242;82;21201;-86
2020/12/14 15:04:29;;;;;;;82.47;44.83;;;;;;;1.50;88.62;99359.48;4250958;83;21236;-83
2020/12/14 15:10:31;;;;;;;102.67;38.17;;;;;;;1.48;89.01;99362.25;4259097;83;21157;-83
2020/12/14 15:16:33;;;;;;;100.38;54.75;;;;;;;1.41;88.63;99364.56;4254033;83;21191;-83
2020/12/14 15:22:34;;;;;;;52.38;25.48;;;;;;;1.33;88.72;99363.97;4265560;83;21643;-83
2020/12/14 15:28:36;;;;;;;60.65;28.47;;;;;;;1.30;88.57;99355.92;4250466;83;21733;-83
2020/12/14 15:34:37;;;;;;;63.33;27.05;;;;;;;1.26;88.95;99362.23;4237261;83;21205;-83
2020/12/14 15:40:38;;;;;;;47.80;24.63;;;;;;;1.20;88.65;99366.97;4229859;84;21680;-83
2020/12/14 15:46:40;;;;;;;58.83;29.67;;;;;;;1.17;88.87;99351.39;4256130;83;21189;-82
2020/12/14 15:52:47;;;;;;;40.17;20.55;;;;;;;1.19;88.81;99365.92;4300214;82;21577;-83
2020/12/14 15:58:45;;;;;;;57.62;28.73;;;;;;;1.14;88.67;99369.50;4282430;81;21128;-82
2020/12/14 16:04:46;;;;;;;125.22;39.88;;;;;;;1.07;88.48;99371.02;4306628;82;21595;-84
2020/12/14 16:10:50;;;;;;;45.10;21.62;;;;;;;1.02;88.65;99377.88;4304227;81;21279;-83
2020/12/14 16:16:51;;;;;;;54.53;23.55;;;;;;;0.96;88.46;99380.44;4379873;81;21193;-83
2020/12/14 16:22:53;;;;;;;51.02;24.20;;;;;;;0.90;88.46;99373.02;4394349;80;21179;-83
2020/12/14 16:28:54;;;;;;;58.23;25.30;;;;;;;0.88;88.38;99393.27;4379821;80;21145;-84
2020/12/14 16:34:56;;;;;;;42.08;22.95;;;;;;;0.94;88.42;99386.70;4353682;80;21185;-83
2020/12/14 16:40:58;;;;;;;50.17;25.35;;;;;;;0.87;88.17;99399.23;4343587;81;21136;-82
2020/12/14 16:46:59;;;;;;;44.50;24.02;;;;;;;0.79;88.32;99401.28;4203032;84;21331;-83
2020/12/14 16:53:00;;;;;;;40.38;20.92;;;;;;;0.69;88.34;99395.31;4207485;84;21299;-83
2020/12/14 16:59:02;;;;;;;44.98;22.35;;;;;;;0.75;88.47;99388.72;4186562;84;21185;-83
2020/12/14 17:05:06;;;;;;;51.77;25.30;;;;;;;0.78;88.44;99386.23;4190964;84;21184;-83
2020/12/14 17:11:09;;;;;;;53.92;25.75;;;;;;;0.77;88.40;99395.39;4281705;82;21454;-83
2020/12/14 17:17:11;;;;;;;46.58;23.30;;;;;;;0.68;88.42;99380.23;4246730;83;21157;-84
2020/12/14 17:23:17;;;;;;;49.75;25.10;;;;;;;0.53;88.31;99367.08;4210235;84;21147;-83
2020/12/14 17:29:16;;;;;;;53.38;27.15;;;;;;;0.41;88.36;99354.67;4186315;84;21638;-83
2020/12/14 17:35:17;;;;;;;63.02;30.37;;;;;;;0.40;88.26;99359.78;4249138;83;21213;-83
2020/12/14 17:41:19;;;;;;;60.40;32.55;;;;;;;0.40;88.26;99359.78;4253698;83;21173;-83
2020/12/14 17:47:20;;;;;;;70.80;33.85;;;;;;;0.41;88.37;99376.22;4249785;82;21796;-84
2020/12/14 17:53:22;;;;;;;67.90;34.65;;;;;;;0.39;88.64;99387.83;4281135;82;21188;-84
2020/12/14 17:59:39;;;;;;;67.15;32.75;;;;;;;0.09;88.39;99362.28;4283125;82;21666;-83
2020/12/14 18:05:40;;;;;;;62.53;30.70;;;;;;;0.20;88.81;99397.34;4285774;83;21181;-84
2020/12/14 18:11:42;;;;;;;95.77;41.83;;;;;;;0.08;89.00;99401.61;4288041;83;21171;-84
2020/12/14 18:17:43;;;;;;;94.17;42.38;;;;;;;0.08;89.00;99401.61;4203887;83;21193;-84
2020/12/14 18:23:46;;;;;;;87.70;42.85;;;;;;;0.06;88.99;99390.33;4245442;83;21165;-83
2020/12/14 18:29:47;;;;;;;78.87;36.50;;;;;;;0.00;88.96;99374.83;4276519;83;21208;-83
2020/12/14 21:28:11;;;;;;;104.43;44.23;;;;;;;-1.07;90.08;99339.19;4398979;80;21284;-84
2020/12/14 21:34:12;;;;;;;111.37;45.00;;;;;;;-1.10;90.28;99341.66;4316719;82;21287;-84
2020/12/14 21:40:13;;;;;;;103.97;43.00;;;;;;;-1.04;90.47;99335.11;4277152;82;21186;-84
2020/12/14 21:46:15;;;;;;;114.10;45.67;;;;;;;-1.04;90.46;99339.95;4294767;83;21117;-83
2020/12/14 21:52:16;;;;;;;104.30;45.70;;;;;;;-1.03;90.27;99347.45;4270546;83;21159;-83
2020/12/14 21:58:18;;;;;;;109.37;49.47;;;;;;;-1.05;90.25;99343.70;4271088;83;21339;-83
2020/12/14 22:04:19;;;;;;;127.77;53.67;;;;;;;-1.09;90.23;99352.11;4277653;83;21169;-83
2020/12/14 22:10:20;;;;;;;129.97;52.37;;;;;;;-1.10;90.42;99354.55;4268995;83;21768;-84
2020/12/14 22:16:25;;;;;;;119.47;48.50;;;;;;;-1.06;90.32;99352.87;4293329;83;21624;-84
2020/12/14 22:22:27;;;;;;;118.33;45.17;;;;;;;-1.11;90.44;99355.63;4267039;81;21625;-83
2020/12/14 22:28:28;;;;;;;113.23;46.53;;;;;;;-1.11;90.62;99351.59;4269901;83;21150;-84
2020/12/14 22:34:29;;;;;;;113.20;45.20;;;;;;;-1.10;90.64;99345.15;4282659;81;21552;-83
2020/12/14 22:40:31;;;;;;;120.47;49.93;;;;;;;-1.08;90.91;99346.98;4273199;83;21846;-83
2020/12/14 22:46:32;;;;;;;121.20;47.08;;;;;;;-1.07;90.84;99348.59;4274663;83;21202;-83
2020/12/14 22:52:34;;;;;;;121.30;48.83;;;;;;;-1.05;90.83;99358.48;4275442;82;21920;-83
2020/12/14 22:58:35;;;;;;;117.93;46.83;;;;;;;-1.00;91.12;99372.42;4282773;83;21331;-83
2020/12/14 23:04:36;;;;;;;121.27;48.20;;;;;;;-0.92;91.11;99381.95;4279907;83;21182;-84
2020/12/14 23:10:38;;;;;;;118.03;48.53;;;;;;;-0.88;91.16;99376.27;4283413;83;21157;-83
2020/12/14 23:16:41;;;;;;;132.60;49.07;;;;;;;-0.80;91.15;99382.31;4288537;83;21637;-83
2020/12/14 23:22:43;;;;;;;109.60;44.90;;;;;;;-0.81;90.90;99376.69;4271920;83;21179;-83
2020/12/14 23:28:45;;;;;;;134.30;48.60;;;;;;;-0.82;90.94;99385.86;4277611;81;21146;-83
2020/12/14 23:34:46;;;;;;;109.40;45.17;;;;;;;-0.86;90.88;99374.07;4278255;81;21617;-83
2020/12/14 23:40:48;;;;;;;113.03;43.25;;;;;;;-0.92;91.03;99378.46;4275264;83;21599;-83
2020/12/14 23:46:50;;;;;;;111.42;43.02;;;;;;;-0.94;91.77;99371.26;4268235;81;21579;-83
2020/12/14 23:52:51;;;;;;;96.87;39.77;;;;;;;-1.09;91.34;99375.48;4276457;81;21165;-83
2020/12/14 23:58:53;;;;;;;97.30;36.40;;;;;;;-1.04;91.52;99384.28;4270159;82;21721;-83
